Time;durP1;ratioP1;P1;durP2;ratioP2;P2;SDS_P1;SDS_P2;PMS_P1;PMS_P2;Temp;Humidity;BMP_temperature;BMP_pressure;BME280_temperature;BME280_humidity;BME280_pressure;Samples;Min_cycle;Max_cycle;Signal;HPM_P1;HPM_P2
2022/01/04 00:01:03;;;;;;;12.18;8.55;;;5.90;99.90;;;;;;5076840;28;20028;-92
2022/01/04 00:03:28;;;;;;;11.95;8.52;;;5.80;99.90;;;;;;5063140;28;20029;-92
2022/01/04 00:05:54;;;;;;;13.43;8.82;;;5.90;99.90;;;;;;5056483;28;20029;-92
2022/01/04 00:08:20;;;;;;;15.13;8.90;;;5.80;99.90;;;;;;5056475;28;20043;-91
2022/01/04 00:10:46;;;;;;;12.05;8.82;;;5.80;99.90;;;;;;5056863;28;20467;-91
2022/01/04 00:13:23;;;;;;;13.70;9.13;;;5.80;99.90;;;;;;5056504;28;20025;-90
2022/01/04 00:15:50;;;;;;;12.90;8.25;;;5.80;99.90;;;;;;5056475;28;20052;-90
2022/01/04 00:18:17;;;;;;;12.10;8.18;;;5.80;99.90;;;;;;5068137;28;20076;-91
2022/01/04 00:20:43;;;;;;;10.65;7.47;;;5.70;99.90;;;;;;5063459;28;20020;-91
2022/01/04 00:23:09;;;;;;;13.00;7.85;;;5.70;99.90;;;;;;5062347;28;20024;-91
2022/01/04 00:25:35;;;;;;;12.30;8.02;;;5.70;99.90;;;;;;5056174;28;20486;-91
2022/01/04 00:28:01;;;;;;;13.13;8.40;;;5.70;99.90;;;;;;5056243;28;20075;-91
2022/01/04 00:30:29;;;;;;;12.27;8.50;;;5.70;99.90;;;;;;5056177;28;20025;-91
2022/01/04 00:32:55;;;;;;;9.77;8.02;;;5.70;99.90;;;;;;5055946;28;20112;-91
2022/01/04 00:35:21;;;;;;;12.45;9.00;;;5.70;99.90;;;;;;5056062;28;20086;-91
2022/01/04 00:37:47;;;;;;;11.90;8.20;;;5.70;99.90;;;;;;5069154;28;20478;-91
2022/01/04 00:40:13;;;;;;;11.75;8.50;;;5.70;99.90;;;;;;5076183;28;20475;-91
2022/01/04 00:42:38;;;;;;;10.90;7.93;;;5.70;99.90;;;;;;5075907;28;20025;-90
2022/01/04 00:45:05;;;;;;;11.88;8.48;;;5.70;99.90;;;;;;5076137;28;20024;-90
2022/01/04 00:47:44;;;;;;;11.90;8.60;;;5.70;99.90;;;;;;5075812;28;20056;-91
2022/01/04 00:50:10;;;;;;;11.57;8.77;;;5.70;99.90;;;;;;5075225;28;20024;-91
2022/01/04 00:52:35;;;;;;;13.38;9.27;;;5.70;99.90;;;;;;5061636;28;20044;-91
2022/01/04 00:55:02;;;;;;;12.55;8.80;;;5.70;99.90;;;;;;5055545;28;20162;-91
2022/01/04 00:57:29;;;;;;;14.07;9.20;;;5.70;99.90;;;;;;5055490;28;20021;-91
2022/01/04 00:59:54;;;;;;;13.77;8.38;;;5.70;99.90;;;;;;5055519;28;20491;-91
2022/01/04 01:02:20;;;;;;;13.60;8.13;;;5.70;99.90;;;;;;5055802;28;20027;-91
2022/01/04 01:04:45;;;;;;;12.00;7.93;;;5.70;99.90;;;;;;5055274;28;20025;-91
2022/01/04 01:07:11;;;;;;;10.95;7.82;;;5.70;99.90;;;;;;5067837;28;20119;-91
2022/01/04 01:09:46;;;;;;;13.43;8.65;;;5.70;99.90;;;;;;5075330;28;20059;-90
2022/01/04 01:12:12;;;;;;;12.90;8.68;;;5.80;99.90;;;;;;5075486;28;20474;-91
2022/01/04 01:14:38;;;;;;;14.55;9.35;;;5.70;99.90;;;;;;5075226;28;20036;-91
2022/01/04 01:17:04;;;;;;;11.82;8.27;;;5.70;99.90;;;;;;5060852;28;20069;-91
2022/01/04 01:19:29;;;;;;;12.07;8.32;;;5.70;99.90;;;;;;5055000;28;20021;-91
2022/01/04 01:21:55;;;;;;;11.07;7.55;;;5.70;99.90;;;;;;5055652;28;20039;-91
2022/01/04 01:24:21;;;;;;;11.32;7.85;;;5.80;99.90;;;;;;5055148;28;20029;-91
2022/01/04 01:26:46;;;;;;;11.95;7.47;;;5.80;99.90;;;;;;5055260;28;20087;-91
2022/01/04 01:29:12;;;;;;;10.35;7.15;;;5.70;99.90;;;;;;5054969;28;20112;-91
2022/01/04 01:31:37;;;;;;;11.48;7.75;;;5.80;99.90;;;;;;5055008;28;20029;-91
2022/01/04 01:34:03;;;;;;;9.57;7.28;;;5.80;99.90;;;;;;5054862;28;20091;-91
2022/01/04 01:36:31;;;;;;;11.52;7.65;;;5.70;99.90;;;;;;5060277;28;20048;-91
2022/01/04 01:38:57;;;;;;;11.23;6.93;;;5.70;99.90;;;;;;5074805;28;20075;-91
2022/01/04 01:41:23;;;;;;;12.85;7.95;;;5.80;99.90;;;;;;5074729;28;20083;-91
2022/01/04 01:43:49;;;;;;;8.35;6.68;;;5.70;99.90;;;;;;5074671;28;20020;-91
2022/01/04 01:46:14;;;;;;;8.70;6.65;;;5.70;99.90;;;;;;5075231;28;20021;-91
2022/01/04 01:48:40;;;;;;;11.65;6.47;;;5.70;99.90;;;;;;5074782;28;20032;-91
2022/01/04 01:51:07;;;;;;;9.38;6.50;;;5.70;99.90;;;;;;5075472;28;20482;-91
2022/01/04 01:53:33;;;;;;;9.98;6.30;;;5.70;99.90;;;;;;5074361;28;20389;-91
2022/01/04 01:55:59;;;;;;;8.50;6.63;;;5.70;99.90;;;;;;5074452;28;20024;-91
2022/01/04 01:58:24;;;;;;;8.48;6.07;;;5.70;99.90;;;;;;5074271;28;20034;-92
2022/01/04 02:00:50;;;;;;;10.55;6.55;;;5.70;99.90;;;;;;5073497;28;20024;-91
2022/01/04 02:03:16;;;;;;;8.90;5.85;;;5.70;99.90;;;;;;5074115;28;20027;-91
2022/01/04 02:05:41;;;;;;;14.23;6.40;;;5.70;99.90;;;;;;5069634;28;20056;-91
2022/01/04 02:08:08;;;;;;;7.03;5.28;;;5.70;99.90;;;;;;5054455;28;20029;-91
2022/01/04 02:10:34;;;;;;;8.55;5.60;;;5.70;99.90;;;;;;5054136;28;20365;-91
2022/01/04 02:13:00;;;;;;;7.90;5.78;;;5.70;99.90;;;;;;5054269;28;20037;-91
2022/01/04 02:15:29;;;;;;;10.45;5.95;;;5.80;99.90;;;;;;5054167;28;20036;-91
2022/01/04 02:17:55;;;;;;;7.70;5.57;;;5.80;99.90;;;;;;5026690;28;20046;-91
2022/01/04 02:20:21;;;;;;;8.00;5.70;;;5.70;99.90;;;;;;5021047;28;20029;-91
2022/01/04 02:22:48;;;;;;;9.02;5.75;;;5.70;99.90;;;;;;5037245;28;20112;-91
2022/01/04 02:25:14;;;;;;;9.13;5.95;;;5.80;99.90;;;;;;5037349;28;20052;-91
2022/01/04 02:27:41;;;;;;;8.30;5.97;;;5.80;99.90;;;;;;5037608;28;20035;-90
2022/01/04 02:30:11;;;;;;;9.32;6.32;;;5.80;99.90;;;;;;5054900;28;20029;-91
2022/01/04 02:32:37;;;;;;;11.82;6.25;;;5.80;99.90;;;;;;5037130;28;20031;-92
2022/01/04 02:35:04;;;;;;;9.15;5.45;;;5.80;99.90;;;;;;5033718;28;20120;-93
2022/01/04 02:37:32;;;;;;;8.25;5.60;;;5.80;99.90;;;;;;5017297;28;20022;-91
2022/01/04 02:39:58;;;;;;;7.88;5.80;;;5.80;99.90;;;;;;5017335;28;20088;-91
2022/01/04 02:42:24;;;;;;;9.60;5.65;;;5.80;99.90;;;;;;5017159;28;20034;-90
2022/01/04 02:44:50;;;;;;;6.97;5.13;;;5.80;99.90;;;;;;5017943;28;20029;-91
2022/01/04 02:47:17;;;;;;;7.85;4.78;;;5.80;99.90;;;;;;5017838;28;20021;-94
2022/01/04 02:49:43;;;;;;;7.43;5.10;;;5.70;99.90;;;;;;5017138;28;20415;-90
2022/01/04 02:52:09;;;;;;;7.03;5.70;;;5.80;99.90;;;;;;5034548;28;20029;-91
2022/01/04 02:54:35;;;;;;;7.20;5.50;;;5.80;99.90;;;;;;5036764;28;20025;-91
2022/01/04 02:57:01;;;;;;;8.80;6.25;;;5.80;99.90;;;;;;5036823;28;20124;-90
2022/01/04 02:59:27;;;;;;;9.35;6.47;;;5.80;99.90;;;;;;5036816;28;20507;-90
2022/01/04 03:01:52;;;;;;;9.70;6.13;;;5.80;99.90;;;;;;5053107;28;20032;-90
2022/01/04 03:04:20;;;;;;;13.25;6.05;;;5.80;99.90;;;;;;5036647;28;20025;-90
2022/01/04 03:06:46;;;;;;;9.05;6.57;;;5.70;99.90;;;;;;5054574;28;20074;-90
2022/01/04 03:09:12;;;;;;;9.68;7.20;;;5.70;99.90;;;;;;5036628;28;20174;-90
2022/01/04 03:11:37;;;;;;;10.77;7.55;;;5.70;99.90;;;;;;5035753;28;20132;-91
2022/01/04 03:14:03;;;;;;;13.02;8.05;;;5.70;99.90;;;;;;5036413;28;20533;-91
2022/01/04 03:16:29;;;;;;;13.77;7.65;;;5.70;99.90;;;;;;5023329;28;20041;-90
2022/01/04 03:19:03;;;;;;;11.48;7.95;;;5.70;99.90;;;;;;5016646;28;20109;-90
2022/01/04 03:21:42;;;;;;;9.98;7.25;;;5.70;99.90;;;;;;5016949;28;20021;-91
2022/01/04 03:24:11;;;;;;;12.32;8.65;;;5.70;99.90;;;;;;5016795;28;20025;-90
2022/01/04 03:26:37;;;;;;;10.43;7.88;;;5.60;99.90;;;;;;5017025;28;20022;-90
2022/01/04 03:29:06;;;;;;;10.48;7.88;;;5.60;99.90;;;;;;5016546;28;20030;-91
2022/01/04 03:31:32;;;;;;;10.82;7.57;;;5.60;99.90;;;;;;5018285;28;20456;-90
2022/01/04 03:33:58;;;;;;;10.90;7.80;;;5.60;99.90;;;;;;5016413;28;20113;-91
2022/01/04 03:36:24;;;;;;;11.98;7.55;;;5.60;99.90;;;;;;5018544;28;20400;-91
2022/01/04 03:38:56;;;;;;;13.98;7.38;;;5.60;99.90;;;;;;5016440;28;20042;-91
2022/01/04 03:41:24;;;;;;;10.75;7.65;;;5.60;99.90;;;;;;5024162;28;20021;-90
2022/01/04 03:43:50;;;;;;;9.70;6.85;;;5.60;99.90;;;;;;5016461;28;20067;-90
2022/01/04 03:46:17;;;;;;;10.27;7.00;;;5.60;99.90;;;;;;5021002;28;20052;-90
2022/01/04 03:48:43;;;;;;;11.07;7.28;;;5.60;99.90;;;;;;5016847;28;20036;-90
2022/01/04 03:51:10;;;;;;;11.27;6.82;;;5.60;99.90;;;;;;5016638;28;20120;-90
2022/01/04 03:53:36;;;;;;;8.45;6.10;;;5.60;99.90;;;;;;5016438;28;20380;-90
2022/01/04 03:56:02;;;;;;;11.30;6.80;;;5.50;99.90;;;;;;5027455;28;20035;-90
2022/01/04 03:58:28;;;;;;;9.77;6.85;;;5.40;99.90;;;;;;5043627;28;20029;-90
2022/01/04 04:00:54;;;;;;;12.40;7.88;;;5.30;99.90;;;;;;5053636;28;20471;-91
2022/01/04 04:03:20;;;;;;;11.27;7.32;;;5.20;99.90;;;;;;5026148;28;20048;-90
2022/01/04 04:05:45;;;;;;;11.50;6.65;;;5.10;99.90;;;;;;5016256;28;20116;-90
2022/01/04 04:08:11;;;;;;;9.48;6.70;;;5.00;99.90;;;;;;5016338;28;20391;-92
2022/01/04 04:10:37;;;;;;;9.55;6.50;;;5.00;99.90;;;;;;5033998;28;20052;-90
2022/01/04 04:13:03;;;;;;;9.15;6.40;;;5.00;99.90;;;;;;5016370;28;20026;-90
2022/01/04 04:15:29;;;;;;;11.32;7.07;;;5.10;99.90;;;;;;5025560;28;20036;-90
2022/01/04 04:17:55;;;;;;;8.40;6.22;;;5.10;99.90;;;;;;5035743;28;20049;-90
2022/01/04 04:20:21;;;;;;;10.50;6.32;;;5.10;99.90;;;;;;5035931;28;20036;-91
2022/01/04 04:22:47;;;;;;;9.05;6.57;;;5.20;99.90;;;;;;5053539;28;20017;-90
2022/01/04 04:25:13;;;;;;;7.57;6.32;;;5.20;99.90;;;;;;5037642;28;20032;-90
2022/01/04 04:27:38;;;;;;;8.55;5.95;;;5.30;99.90;;;;;;5039435;28;20067;-90
2022/01/04 04:30:05;;;;;;;8.88;6.15;;;5.30;99.90;;;;;;5039393;28;20021;-90
2022/01/04 04:32:30;;;;;;;8.23;5.78;;;5.40;99.90;;;;;;5038697;28;20040;-91
2022/01/04 04:34:57;;;;;;;8.90;5.90;;;5.40;99.90;;;;;;5022483;28;20033;-91
2022/01/04 04:37:23;;;;;;;9.38;6.82;;;5.40;99.90;;;;;;5047351;28;20067;-90
2022/01/04 04:39:49;;;;;;;15.40;8.82;;;5.40;99.90;;;;;;5025289;28;20025;-90
2022/01/04 04:42:15;;;;;;;11.63;7.55;;;5.40;99.90;;;;;;5039240;28;20079;-92
2022/01/04 04:44:40;;;;;;;9.80;6.45;;;5.40;99.90;;;;;;5026585;28;20035;-90
2022/01/04 04:47:06;;;;;;;10.05;6.43;;;5.40;99.90;;;;;;5025069;28;20025;-90
2022/01/04 04:49:32;;;;;;;8.40;6.07;;;5.40;99.90;;;;;;5050032;28;20090;-90
2022/01/04 04:51:59;;;;;;;9.95;6.47;;;5.40;99.90;;;;;;5039343;28;20036;-90
2022/01/04 04:54:26;;;;;;;11.77;6.80;;;5.40;99.90;;;;;;5056658;28;20021;-90
2022/01/04 04:56:51;;;;;;;8.85;5.90;;;5.40;99.90;;;;;;5026389;28;20048;-91
2022/01/04 04:59:17;;;;;;;9.10;5.45;;;5.40;99.90;;;;;;5018980;28;20021;-91
2022/01/04 05:01:43;;;;;;;9.55;5.72;;;5.50;99.90;;;;;;5019255;28;20021;-90
2022/01/04 05:04:08;;;;;;;9.80;6.25;;;5.40;99.90;;;;;;5019161;28;20031;-90
2022/01/04 05:06:34;;;;;;;7.95;6.03;;;5.40;99.90;;;;;;5018932;28;20034;-90
2022/01/04 05:09:00;;;;;;;7.15;5.20;;;5.50;99.90;;;;;;5018991;28;20060;-90
2022/01/04 05:11:26;;;;;;;6.30;4.70;;;5.50;99.90;;;;;;5018711;28;20021;-90
2022/01/04 05:13:52;;;;;;;5.95;4.88;;;5.50;99.90;;;;;;5018742;28;20076;-91
2022/01/04 05:16:18;;;;;;;9.65;5.43;;;5.50;99.90;;;;;;5021559;28;20464;-89
2022/01/04 05:18:44;;;;;;;7.55;4.47;;;5.50;99.90;;;;;;5039674;28;20021;-90
2022/01/04 05:21:09;;;;;;;11.95;5.00;;;5.50;99.90;;;;;;5058280;28;20461;-90
2022/01/04 14:52:04;;;;;;;39.00;18.92;;;4.10;99.90;;;;;;5091318;28;20390;-94
2022/01/04 14:54:30;;;;;;;47.78;21.33;;;4.00;99.90;;;;;;5090837;28;20039;-94
2022/01/04 14:56:56;;;;;;;45.88;24.17;;;3.90;99.90;;;;;;5091002;28;20021;-95
2022/01/04 14:59:22;;;;;;;48.35;24.38;;;3.70;99.90;;;;;;5090533;28;20540;-95
2022/01/04 15:01:48;;;;;;;55.15;26.75;;;3.70;99.90;;;;;;5090649;28;20033;-94
2022/01/04 15:04:14;;;;;;;54.38;26.08;;;3.60;99.90;;;;;;5091120;28;20055;-95
2022/01/04 15:06:42;;;;;;;52.10;27.85;;;3.50;99.90;;;;;;5090730;28;20055;-95
2022/01/04 15:09:09;;;;;;;52.55;27.67;;;3.40;99.90;;;;;;5090130;28;20032;-94
2022/01/04 15:11:35;;;;;;;57.10;29.17;;;3.30;99.90;;;;;;5090511;28;20028;-95
2022/01/04 15:14:01;;;;;;;47.38;27.25;;;3.20;99.90;;;;;;5086333;28;20908;-93
2022/01/04 15:16:28;;;;;;;53.10;27.77;;;3.20;99.90;;;;;;5070140;28;20158;-94
2022/01/04 15:18:54;;;;;;;53.60;28.55;;;3.20;99.90;;;;;;5072885;28;20440;-94
2022/01/04 15:21:20;;;;;;;53.35;27.00;;;3.10;99.90;;;;;;5091184;28;20035;-94
2022/01/04 15:23:47;;;;;;;46.13;26.13;;;3.10;99.90;;;;;;5091013;28;20024;-93
2022/01/04 15:26:14;;;;;;;47.38;27.98;;;3.00;99.90;;;;;;5090120;28;20031;-93
2022/01/04 15:28:40;;;;;;;51.28;28.10;;;3.10;99.90;;;;;;5089976;28;20052;-94
2022/01/04 15:31:06;;;;;;;51.60;27.52;;;3.10;99.90;;;;;;5090336;28;20066;-93
2022/01/04 15:33:36;;;;;;;51.58;27.25;;;3.00;99.90;;;;;;5090807;28;20024;-94
2022/01/04 15:36:06;;;;;;;53.50;29.15;;;3.10;99.90;;;;;;5090196;28;20391;-93
2022/01/04 15:38:32;;;;;;;47.15;27.42;;;3.00;99.90;;;;;;5089849;28;20033;-94
2022/01/04 15:40:59;;;;;;;51.78;27.70;;;3.00;99.90;;;;;;5090531;28;20021;-94
2022/01/04 15:43:29;;;;;;;50.55;27.38;;;2.90;99.90;;;;;;5089800;28;20029;-94
2022/01/04 15:45:56;;;;;;;49.00;27.65;;;2.90;99.90;;;;;;5088929;28;20028;-94
2022/01/04 15:48:22;;;;;;;43.63;25.10;;;2.80;99.90;;;;;;5090857;28;20108;-93
2022/01/04 15:50:49;;;;;;;44.28;25.23;;;2.70;99.90;;;;;;5090104;28;20048;-93
2022/01/04 15:53:17;;;;;;;57.05;27.48;;;2.70;99.90;;;;;;5089575;28;20024;-94
2022/01/04 15:55:43;;;;;;;48.22;26.77;;;2.60;99.90;;;;;;5089893;28;20112;-94
2022/01/04 15:58:09;;;;;;;50.22;26.20;;;2.60;99.90;;;;;;5090086;28;20020;-93
2022/01/04 16:00:36;;;;;;;44.10;26.02;;;2.60;99.90;;;;;;5089608;28;20032;-94
2022/01/04 16:03:03;;;;;;;47.97;26.55;;;2.60;99.90;;;;;;5078632;28;20031;-93
2022/01/04 16:05:29;;;;;;;45.50;25.20;;;2.60;99.90;;;;;;5097071;28;20114;-94
2022/01/04 16:07:55;;;;;;;44.85;24.38;;;2.50;99.90;;;;;;5096308;28;20056;-93
2022/01/04 16:10:21;;;;;;;48.75;23.92;;;2.50;99.90;;;;;;5096223;28;20028;-93
2022/01/04 16:12:46;;;;;;;43.30;23.70;;;2.50;99.90;;;;;;5095915;28;20017;-93
2022/01/04 16:15:18;;;;;;;42.58;23.80;;;2.60;99.90;;;;;;5096141;28;20030;-93
2022/01/04 16:17:52;;;;;;;42.35;22.77;;;2.50;99.90;;;;;;5096900;28;20115;-94
2022/01/04 16:23:04;;;;;;;42.13;22.95;;;2.50;99.90;;;;;;5097480;28;20087;-93
2022/01/04 16:25:37;;;;;;;42.03;24.30;;;2.50;99.90;;;;;;5084638;28;20060;-93
2022/01/04 16:28:03;;;;;;;45.28;23.67;;;2.60;99.90;;;;;;5076316;28;20028;-92
2022/01/04 16:30:30;;;;;;;36.10;21.42;;;2.70;99.90;;;;;;5075548;28;20028;-93
2022/01/04 16:32:56;;;;;;;38.97;21.15;;;2.70;99.90;;;;;;5075879;28;20024;-93
2022/01/04 16:35:22;;;;;;;41.63;21.52;;;2.80;99.90;;;;;;5075319;28;20025;-94
2022/01/04 16:37:49;;;;;;;37.75;19.80;;;2.90;99.90;;;;;;5075385;28;20035;-93
2022/01/04 16:40:18;;;;;;;41.30;20.33;;;3.10;99.90;;;;;;5075444;28;20025;-94
2022/01/04 16:42:44;;;;;;;36.28;19.23;;;3.20;99.90;;;;;;5075206;28;20551;-94
2022/01/04 16:45:12;;;;;;;32.75;19.40;;;3.30;99.90;;;;;;5075393;28;20475;-93
2022/01/04 16:47:38;;;;;;;37.30;19.85;;;3.40;99.90;;;;;;5075038;28;20550;-93
2022/01/04 16:50:10;;;;;;;43.03;21.73;;;3.40;99.90;;;;;;5075056;28;20134;-94
2022/01/04 16:52:36;;;;;;;45.42;22.80;;;3.50;99.90;;;;;;5075128;28;20378;-92
2022/01/04 16:55:03;;;;;;;46.65;24.73;;;3.50;99.90;;;;;;5075004;28;20059;-93
2022/01/04 16:57:31;;;;;;;45.65;24.27;;;3.60;99.90;;;;;;5063295;28;20039;-92
2022/01/04 17:00:00;;;;;;;47.40;26.25;;;3.60;99.90;;;;;;5055270;28;20025;-92
2022/01/04 17:02:25;;;;;;;53.25;26.80;;;3.50;99.90;;;;;;5055063;28;20090;-92
2022/01/04 17:04:52;;;;;;;47.33;25.48;;;3.50;99.90;;;;;;5054959;28;20057;-92
2022/01/04 17:07:18;;;;;;;46.70;24.10;;;3.50;99.90;;;;;;5054742;28;20025;-93
2022/01/04 17:09:49;;;;;;;41.97;24.15;;;3.40;99.90;;;;;;5054694;28;20032;-93
2022/01/04 17:12:37;;;;;;;43.63;24.40;;;3.30;99.90;;;;;;5066265;28;20051;-92
2022/01/04 17:17:48;;;;;;;50.15;26.42;;;3.10;99.90;;;;;;5075948;28;20081;-93
2022/01/04 17:20:14;;;;;;;60.67;29.98;;;3.00;99.90;;;;;;5073435;28;20052;-92
2022/01/04 17:22:41;;;;;;;52.92;28.85;;;2.90;99.90;;;;;;5060900;28;20025;-92
2022/01/04 17:25:12;;;;;;;58.47;29.25;;;2.80;99.90;;;;;;5054499;28;20036;-93
2022/01/04 17:27:43;;;;;;;53.38;30.20;;;2.70;99.90;;;;;;5054047;28;20025;-92
2022/01/04 17:30:17;;;;;;;61.47;31.70;;;2.70;99.90;;;;;;5081844;28;20028;-92
2022/01/04 17:32:43;;;;;;;61.42;32.03;;;2.60;99.90;;;;;;5074144;28;20040;-92
2022/01/04 17:35:09;;;;;;;57.88;32.33;;;2.50;99.90;;;;;;5082753;28;20066;-92
2022/01/04 17:37:35;;;;;;;61.03;32.85;;;2.50;99.90;;;;;;5094187;28;20360;-92
2022/01/04 17:40:03;;;;;;;57.13;29.75;;;2.50;99.90;;;;;;5072586;28;20036;-92
2022/01/04 17:42:29;;;;;;;55.20;30.52;;;2.50;99.90;;;;;;5064934;28;20119;-92
2022/01/04 17:44:55;;;;;;;54.47;27.05;;;2.50;99.90;;;;;;5071332;28;20068;-92
2022/01/04 17:47:21;;;;;;;52.58;28.20;;;2.50;99.90;;;;;;5071737;28;20029;-93
2022/01/04 17:49:47;;;;;;;51.20;28.08;;;2.50;99.90;;;;;;5052011;28;20025;-92
2022/01/04 17:52:13;;;;;;;51.90;27.98;;;2.50;99.90;;;;;;5017362;28;20217;-92
2022/01/04 17:54:38;;;;;;;50.15;26.83;;;2.50;99.90;;;;;;5033831;28;20025;-92
2022/01/04 17:57:04;;;;;;;47.35;25.42;;;2.50;99.90;;;;;;5037235;28;20033;-92
2022/01/04 17:59:30;;;;;;;46.75;24.85;;;2.50;99.90;;;;;;5037253;28;20358;-92
2022/01/04 18:01:56;;;;;;;44.78;23.45;;;2.50;99.90;;;;;;5037210;28;20029;-91
2022/01/04 18:04:22;;;;;;;46.58;23.85;;;2.50;99.90;;;;;;5037178;28;20029;-93
2022/01/04 18:06:48;;;;;;;48.83;26.50;;;2.50;99.90;;;;;;5022569;28;20418;-92
2022/01/04 18:09:14;;;;;;;49.72;25.50;;;2.60;99.90;;;;;;5037087;28;20037;-92
2022/01/04 18:11:43;;;;;;;50.50;25.67;;;2.50;99.90;;;;;;5037590;28;20075;-92
2022/01/04 18:14:10;;;;;;;46.85;24.17;;;2.50;99.90;;;;;;5040475;28;20383;-92
2022/01/04 18:16:37;;;;;;;44.22;22.90;;;2.60;99.90;;;;;;5044688;28;20352;-92
2022/01/04 18:19:03;;;;;;;45.78;23.38;;;2.60;99.90;;;;;;5017335;28;20056;-92
2022/01/04 18:21:29;;;;;;;42.47;22.23;;;2.60;99.90;;;;;;5018641;28;20025;-92
2022/01/04 18:23:55;;;;;;;44.08;23.40;;;2.50;99.90;;;;;;5017041;28;20040;-93
2022/01/04 18:26:20;;;;;;;42.88;23.83;;;2.50;99.90;;;;;;5017309;28;20040;-93
2022/01/04 18:28:46;;;;;;;43.20;23.30;;;2.60;99.90;;;;;;5023591;28;20020;-93
2022/01/04 18:31:12;;;;;;;53.50;26.08;;;2.60;99.90;;;;;;5037802;28;20032;-93
2022/01/04 18:33:38;;;;;;;48.95;25.38;;;2.70;99.90;;;;;;5037484;28;20021;-92
2022/01/04 18:36:04;;;;;;;52.38;26.83;;;2.70;99.90;;;;;;5036033;28;20040;-93
2022/01/04 18:38:30;;;;;;;51.22;25.75;;;2.70;99.90;;;;;;5037434;28;20021;-93
2022/01/04 18:41:00;;;;;;;51.72;27.05;;;2.80;99.90;;;;;;5036829;28;20517;-93
2022/01/04 18:43:27;;;;;;;45.05;22.75;;;2.70;99.90;;;;;;5036576;28;20035;-92
2022/01/04 18:45:55;;;;;;;48.22;23.67;;;2.80;99.90;;;;;;5036444;28;20021;-94
2022/01/04 18:48:21;;;;;;;44.75;21.52;;;2.80;99.90;;;;;;5018651;28;20373;-93
2022/01/04 18:50:47;;;;;;;43.25;21.48;;;2.80;99.90;;;;;;5016834;28;20053;-93
2022/01/04 18:53:13;;;;;;;41.00;21.85;;;2.80;99.90;;;;;;5017005;28;20353;-93
2022/01/04 18:55:38;;;;;;;41.72;20.83;;;2.80;99.90;;;;;;5023077;28;20017;-92
2022/01/04 19:01:26;;;;;;;38.20;19.88;;;2.80;99.90;;;;;;5042002;28;20044;-92
2022/01/04 19:03:52;;;;;;;39.50;21.58;;;2.80;99.90;;;;;;5016935;28;20053;-92
2022/01/04 19:06:18;;;;;;;47.78;25.15;;;2.80;99.90;;;;;;5017405;28;20029;-92
2022/01/04 19:08:44;;;;;;;48.63;24.33;;;2.70;99.90;;;;;;5019126;28;20388;-93
2022/01/04 19:11:09;;;;;;;50.38;26.15;;;2.70;99.90;;;;;;5029945;28;20025;-92
2022/01/04 19:13:36;;;;;;;49.40;27.17;;;2.70;99.90;;;;;;5029211;28;20044;-91
2022/01/04 19:16:03;;;;;;;50.10;26.45;;;2.70;99.90;;;;;;5033302;28;20056;-93
2022/01/04 19:18:31;;;;;;;46.08;24.65;;;2.70;99.90;;;;;;5036636;28;20025;-92
2022/01/04 19:20:58;;;;;;;48.30;23.85;;;2.70;99.90;;;;;;5036110;28;20063;-93
2022/01/04 19:23:25;;;;;;;55.45;27.50;;;2.60;99.90;;;;;;5036555;28;20025;-92
2022/01/04 19:25:52;;;;;;;51.00;25.20;;;2.60;99.90;;;;;;5036139;28;20063;-93
2022/01/04 19:28:18;;;;;;;57.33;27.30;;;2.60;99.90;;;;;;5036197;28;20387;-93
2022/01/04 19:30:44;;;;;;;55.38;29.15;;;2.50;99.90;;;;;;5036268;28;20025;-93
2022/01/04 19:33:24;;;;;;;58.15;27.30;;;2.50;99.90;;;;;;5036199;28;20021;-93
2022/01/04 19:38:36;;;;;;;51.83;27.20;;;2.50;99.90;;;;;;5057589;28;20036;-93
2022/01/04 19:41:04;;;;;;;58.55;27.85;;;2.40;99.90;;;;;;5040080;28;20025;-93
2022/01/04 19:43:30;;;;;;;57.53;26.88;;;2.40;99.90;;;;;;5039683;28;20063;-93
2022/01/04 19:45:55;;;;;;;58.90;25.98;;;2.40;99.90;;;;;;5039419;28;20414;-92
2022/01/04 19:48:21;;;;;;;53.00;25.63;;;2.30;99.90;;;;;;5039733;28;20428;-92
2022/01/04 19:50:49;;;;;;;61.28;26.30;;;2.30;99.90;;;;;;5039451;28;20491;-92
2022/01/04 19:53:17;;;;;;;51.42;24.83;;;2.30;99.90;;;;;;5040599;28;20112;-93
2022/01/04 19:55:44;;;;;;;54.13;24.65;;;2.30;99.90;;;;;;5023203;28;20052;-93
2022/01/04 19:58:10;;;;;;;46.10;23.38;;;2.30;99.90;;;;;;5033359;28;20049;-93
2022/01/04 20:00:36;;;;;;;43.10;20.88;;;2.30;99.90;;;;;;5039223;28;20024;-93
2022/01/04 20:03:03;;;;;;;47.58;22.17;;;2.30;99.90;;;;;;5039697;28;20055;-93
2022/01/04 20:05:30;;;;;;;55.15;20.92;;;2.30;99.90;;;;;;5039237;28;20438;-92
2022/01/04 20:07:56;;;;;;;43.53;20.15;;;2.30;99.90;;;;;;5028627;28;20035;-93
2022/01/04 20:10:22;;;;;;;42.92;19.15;;;2.30;99.90;;;;;;5049180;28;20029;-93
2022/01/04 20:12:55;;;;;;;42.22;19.30;;;2.30;99.90;;;;;;5039387;28;20097;-92
2022/01/04 20:15:23;;;;;;;40.40;19.95;;;2.40;99.90;;;;;;5027537;28;20040;-92
2022/01/04 20:17:49;;;;;;;43.97;21.02;;;2.40;99.90;;;;;;5039167;28;20452;-92
2022/01/04 20:20:15;;;;;;;39.80;20.30;;;2.40;99.90;;;;;;5022722;28;20025;-93
2022/01/04 20:22:41;;;;;;;48.00;20.80;;;2.40;99.90;;;;;;5019348;28;20033;-92
2022/01/04 20:25:07;;;;;;;41.72;21.38;;;2.50;99.90;;;;;;5019337;28;20537;-92
2022/01/04 20:27:33;;;;;;;42.70;20.85;;;2.50;99.90;;;;;;5020335;28;20026;-92
2022/01/04 20:29:58;;;;;;;39.22;19.50;;;2.50;99.90;;;;;;5019014;28;20021;-93
2022/01/04 20:32:24;;;;;;;48.90;21.00;;;2.60;99.90;;;;;;5019229;28;20116;-93
2022/01/04 20:34:50;;;;;;;45.20;21.50;;;2.60;99.90;;;;;;5019047;28;20027;-92
2022/01/04 20:37:16;;;;;;;50.90;22.52;;;2.70;99.90;;;;;;5020163;28;20095;-93
2022/01/04 20:39:42;;;;;;;45.45;21.75;;;2.70;99.90;;;;;;5019621;28;20025;-92
2022/01/04 20:42:07;;;;;;;45.88;22.85;;;2.80;99.90;;;;;;5019601;28;20117;-92
2022/01/04 20:44:34;;;;;;;42.78;21.63;;;2.80;99.90;;;;;;5018982;28;20494;-93
2022/01/04 20:47:00;;;;;;;39.05;22.58;;;2.90;99.90;;;;;;5018918;28;20468;-92
2022/01/04 20:49:26;;;;;;;41.53;22.30;;;2.90;99.90;;;;;;5018694;28;20087;-93
2022/01/04 20:51:51;;;;;;;48.20;24.48;;;3.00;99.90;;;;;;5018967;28;20085;-92
2022/01/04 20:54:17;;;;;;;49.55;24.95;;;3.00;99.90;;;;;;5018701;28;20037;-93
2022/01/04 20:56:43;;;;;;;45.72;24.23;;;3.10;99.90;;;;;;5018815;28;20022;-92
2022/01/04 20:59:08;;;;;;;42.95;23.63;;;3.20;99.90;;;;;;5018922;28;20468;-92
2022/01/04 21:01:34;;;;;;;51.78;24.52;;;3.20;99.90;;;;;;5018618;28;20040;-93
2022/01/04 21:04:01;;;;;;;55.83;26.15;;;3.30;99.90;;;;;;5018412;28;20551;-92
2022/01/04 21:06:26;;;;;;;69.03;31.55;;;3.30;99.90;;;;;;5020187;28;20073;-93
2022/01/04 21:08:52;;;;;;;74.78;31.15;;;3.30;99.90;;;;;;5019678;28;20033;-93
2022/01/04 21:11:18;;;;;;;78.60;31.27;;;3.40;99.90;;;;;;5018896;28;20021;-92
2022/01/04 21:13:44;;;;;;;84.22;35.28;;;3.40;99.90;;;;;;5018353;28;20080;-92
2022/01/04 21:16:09;;;;;;;87.18;35.28;;;3.50;99.90;;;;;;5019338;28;20061;-93
2022/01/04 21:18:35;;;;;;;83.80;33.75;;;3.50;99.90;;;;;;5018147;28;20108;-92
2022/01/04 21:21:01;;;;;;;75.30;30.38;;;3.60;99.90;;;;;;5018143;28;20037;-92
2022/01/04 21:23:27;;;;;;;78.75;31.05;;;3.60;99.90;;;;;;5018666;28;20056;-93
2022/01/04 21:25:52;;;;;;;83.90;33.08;;;3.70;99.90;;;;;;5018400;28;20026;-92
2022/01/04 21:28:18;;;;;;;95.55;35.35;;;3.70;99.90;;;;;;5018267;28;20036;-92
2022/01/04 21:30:44;;;;;;;96.32;36.50;;;3.70;99.90;;;;;;5018251;28;20026;-93
2022/01/04 21:33:14;;;;;;;102.43;38.78;;;3.80;99.90;;;;;;5017998;28;20022;-92
2022/01/04 21:35:41;;;;;;;94.70;35.80;;;3.80;99.90;;;;;;5018785;28;20487;-93
2022/01/04 21:38:06;;;;;;;76.90;31.77;;;3.80;99.90;;;;;;5018732;28;20529;-91
2022/01/04 21:40:32;;;;;;;71.85;30.63;;;3.80;99.90;;;;;;5017845;28;20021;-92
2022/01/04 21:42:58;;;;;;;62.28;28.65;;;3.80;99.90;;;;;;5018352;28;20109;-92
2022/01/04 21:45:24;;;;;;;67.05;27.38;;;3.80;99.90;;;;;;5020784;28;20072;-92
2022/01/04 21:47:50;;;;;;;57.40;24.40;;;3.80;99.90;;;;;;5037384;28;20029;-93
2022/01/04 21:50:16;;;;;;;48.88;22.85;;;3.90;99.90;;;;;;5037593;28;20049;-92
2022/01/04 21:52:41;;;;;;;41.42;19.48;;;3.90;99.90;;;;;;5038630;28;20024;-92
2022/01/04 21:55:09;;;;;;;35.75;17.35;;;3.90;99.90;;;;;;5037366;28;20078;-92
2022/01/04 21:57:36;;;;;;;27.00;14.52;;;3.90;99.90;;;;;;5020229;28;20111;-92
2022/01/04 22:00:04;;;;;;;26.58;13.73;;;4.00;99.90;;;;;;5016988;28;20464;-92
2022/01/04 22:02:30;;;;;;;26.85;14.05;;;4.00;99.90;;;;;;5017976;28;20026;-92
2022/01/04 22:04:55;;;;;;;23.63;13.13;;;4.00;99.90;;;;;;5018340;28;20021;-93
2022/01/04 22:07:21;;;;;;;25.17;13.80;;;4.10;99.90;;;;;;5017627;28;20022;-93
2022/01/04 22:09:47;;;;;;;26.10;13.02;;;4.10;99.90;;;;;;5018098;28;20025;-92
2022/01/04 22:12:13;;;;;;;25.13;13.88;;;4.10;99.90;;;;;;5017277;28;20029;-92
2022/01/04 22:14:38;;;;;;;23.52;13.25;;;4.10;99.90;;;;;;5017432;28;20025;-93
2022/01/04 22:17:04;;;;;;;25.38;13.50;;;4.10;99.90;;;;;;5017215;28;20063;-93
2022/01/04 22:19:31;;;;;;;19.55;12.90;;;4.20;99.90;;;;;;5018536;28;20068;-92